sensor_id;sensor_type;location;lat;lon;timestamp;P1;durP1;ratioP1;P2;durP2;ratioP2
35745;SDS011;21870;42.812;74.628;2022-11-11T00:00:49;21.23;;;14.40;;
35745;SDS011;21870;42.812;74.628;2022-11-11T00:03:16;22.35;;;14.57;;
35745;SDS011;21870;42.812;74.628;2022-11-11T00:05:42;19.80;;;15.45;;
35745;SDS011;21870;42.812;74.628;2022-11-11T00:08:08;21.52;;;14.48;;
35745;SDS011;21870;42.812;74.628;2022-11-11T00:10:34;21.77;;;14.57;;
35745;SDS011;21870;42.812;74.628;2022-11-11T00:13:00;21.40;;;16.48;;
35745;SDS011;21870;42.812;74.628;2022-11-11T00:15:27;21.23;;;14.52;;
35745;SDS011;21870;42.812;74.628;2022-11-11T00:17:54;20.58;;;13.88;;
35745;SDS011;21870;42.812;74.628;2022-11-11T00:20:38;20.98;;;14.95;;
35745;SDS011;21870;42.812;74.628;2022-11-11T00:23:24;20.20;;;14.32;;
35745;SDS011;21870;42.812;74.628;2022-11-11T00:26:11;20.95;;;15.20;;
35745;SDS011;21870;42.812;74.628;2022-11-11T00:28:39;25.58;;;17.33;;
35745;SDS011;21870;42.812;74.628;2022-11-11T00:31:06;23.52;;;16.90;;
35745;SDS011;21870;42.812;74.628;2022-11-11T00:33:34;25.20;;;16.92;;
35745;SDS011;21870;42.812;74.628;2022-11-11T00:36:01;24.05;;;16.63;;
35745;SDS011;21870;42.812;74.628;2022-11-11T00:38:28;19.42;;;16.05;;
35745;SDS011;21870;42.812;74.628;2022-11-11T00:41:20;28.60;;;16.90;;
35745;SDS011;21870;42.812;74.628;2022-11-11T00:43:48;20.38;;;14.60;;
35745;SDS011;21870;42.812;74.628;2022-11-11T00:46:14;20.63;;;16.20;;
35745;SDS011;21870;42.812;74.628;2022-11-11T00:49:00;19.95;;;14.48;;
35745;SDS011;21870;42.812;74.628;2022-11-11T00:51:45;19.88;;;14.68;;
35745;SDS011;21870;42.812;74.628;2022-11-11T00:54:11;18.23;;;14.20;;
35745;SDS011;21870;42.812;74.628;2022-11-11T00:56:38;19.83;;;15.32;;
35745;SDS011;21870;42.812;74.628;2022-11-11T00:59:04;21.30;;;15.55;;
35745;SDS011;21870;42.812;74.628;2022-11-11T01:01:32;23.10;;;15.95;;
35745;SDS011;21870;42.812;74.628;2022-11-11T01:04:00;21.90;;;16.00;;
35745;SDS011;21870;42.812;74.628;2022-11-11T01:06:31;24.95;;;18.70;;
35745;SDS011;21870;42.812;74.628;2022-11-11T01:08:57;25.27;;;20.95;;
35745;SDS011;21870;42.812;74.628;2022-11-11T01:11:28;27.80;;;20.98;;
35745;SDS011;21870;42.812;74.628;2022-11-11T01:13:54;39.63;;;23.02;;
35745;SDS011;21870;42.812;74.628;2022-11-11T01:16:22;28.50;;;20.15;;
35745;SDS011;21870;42.812;74.628;2022-11-11T01:18:50;28.38;;;21.05;;
35745;SDS011;21870;42.812;74.628;2022-11-11T01:21:21;24.05;;;17.80;;
35745;SDS011;21870;42.812;74.628;2022-11-11T01:23:49;25.60;;;17.73;;
35745;SDS011;21870;42.812;74.628;2022-11-11T01:26:20;23.23;;;16.92;;
35745;SDS011;21870;42.812;74.628;2022-11-11T01:28:51;25.15;;;19.92;;
35745;SDS011;21870;42.812;74.628;2022-11-11T01:31:19;28.33;;;19.20;;
35745;SDS011;21870;42.812;74.628;2022-11-11T01:33:46;21.15;;;17.30;;
35745;SDS011;21870;42.812;74.628;2022-11-11T01:36:16;21.63;;;17.52;;
35745;SDS011;21870;42.812;74.628;2022-11-11T01:38:47;20.48;;;16.05;;
35745;SDS011;21870;42.812;74.628;2022-11-11T01:41:15;25.85;;;17.88;;
35745;SDS011;21870;42.812;74.628;2022-11-11T01:44:00;20.08;;;16.17;;
35745;SDS011;21870;42.812;74.628;2022-11-11T01:46:43;24.13;;;17.58;;
35745;SDS011;21870;42.812;74.628;2022-11-11T01:49:16;27.60;;;17.02;;
35745;SDS011;21870;42.812;74.628;2022-11-11T01:56:59;18.67;;;14.82;;
35745;SDS011;21870;42.812;74.628;2022-11-11T01:59:30;23.77;;;17.25;;
35745;SDS011;21870;42.812;74.628;2022-11-11T02:01:58;22.30;;;16.90;;
35745;SDS011;21870;42.812;74.628;2022-11-11T02:04:26;33.25;;;23.88;;
35745;SDS011;21870;42.812;74.628;2022-11-11T02:07:10;27.92;;;21.45;;
35745;SDS011;21870;42.812;74.628;2022-11-11T02:09:41;29.27;;;19.20;;
35745;SDS011;21870;42.812;74.628;2022-11-11T02:12:12;26.63;;;21.20;;
35745;SDS011;21870;42.812;74.628;2022-11-11T02:14:57;24.02;;;19.95;;
35745;SDS011;21870;42.812;74.628;2022-11-11T02:17:25;44.22;;;25.67;;
35745;SDS011;21870;42.812;74.628;2022-11-11T02:20:00;53.60;;;29.00;;
35745;SDS011;21870;42.812;74.628;2022-11-11T02:24:57;45.90;;;27.38;;
35745;SDS011;21870;42.812;74.628;2022-11-11T02:27:24;50.42;;;30.33;;
35745;SDS011;21870;42.812;74.628;2022-11-11T02:29:55;50.78;;;30.83;;
35745;SDS011;21870;42.812;74.628;2022-11-11T02:32:22;56.90;;;34.22;;
35745;SDS011;21870;42.812;74.628;2022-11-11T02:34:48;51.70;;;31.33;;
35745;SDS011;21870;42.812;74.628;2022-11-11T02:37:15;52.63;;;35.80;;
35745;SDS011;21870;42.812;74.628;2022-11-11T02:39:44;49.08;;;36.33;;
35745;SDS011;21870;42.812;74.628;2022-11-11T02:42:12;54.60;;;33.47;;
35745;SDS011;21870;42.812;74.628;2022-11-11T02:44:40;74.47;;;47.03;;
35745;SDS011;21870;42.812;74.628;2022-11-11T02:47:07;90.18;;;61.10;;
35745;SDS011;21870;42.812;74.628;2022-11-11T02:49:33;193.05;;;137.63;;
35745;SDS011;21870;42.812;74.628;2022-11-11T02:51:59;63.17;;;44.25;;
35745;SDS011;21870;42.812;74.628;2022-11-11T02:54:25;48.30;;;31.77;;
35745;SDS011;21870;42.812;74.628;2022-11-11T02:56:51;55.88;;;28.60;;
35745;SDS011;21870;42.812;74.628;2022-11-11T02:59:36;105.65;;;70.20;;
35745;SDS011;21870;42.812;74.628;2022-11-11T03:02:04;62.42;;;35.83;;
35745;SDS011;21870;42.812;74.628;2022-11-11T03:04:31;112.00;;;71.13;;
35745;SDS011;21870;42.812;74.628;2022-11-11T03:06:58;95.60;;;60.00;;
35745;SDS011;21870;42.812;74.628;2022-11-11T03:09:25;80.22;;;49.22;;
35745;SDS011;21870;42.812;74.628;2022-11-11T03:11:51;48.88;;;33.58;;
35745;SDS011;21870;42.812;74.628;2022-11-11T03:14:17;52.85;;;33.72;;
35745;SDS011;21870;42.812;74.628;2022-11-11T03:16:43;60.63;;;32.63;;
35745;SDS011;21870;42.812;74.628;2022-11-11T03:19:28;44.42;;;29.45;;
35745;SDS011;21870;42.812;74.628;2022-11-11T03:21:54;49.10;;;32.47;;
35745;SDS011;21870;42.812;74.628;2022-11-11T03:24:20;44.58;;;23.92;;
35745;SDS011;21870;42.812;74.628;2022-11-11T03:26:46;47.53;;;27.48;;
35745;SDS011;21870;42.812;74.628;2022-11-11T03:29:13;55.80;;;34.50;;
35745;SDS011;21870;42.812;74.628;2022-11-11T03:31:39;49.95;;;35.33;;
35745;SDS011;21870;42.812;74.628;2022-11-11T03:34:05;50.90;;;34.65;;
35745;SDS011;21870;42.812;74.628;2022-11-11T03:36:43;90.57;;;33.78;;
35745;SDS011;21870;42.812;74.628;2022-11-11T03:39:28;82.03;;;38.13;;
35745;SDS011;21870;42.812;74.628;2022-11-11T03:41:55;68.53;;;42.97;;
35745;SDS011;21870;42.812;74.628;2022-11-11T03:44:22;55.58;;;35.88;;
35745;SDS011;21870;42.812;74.628;2022-11-11T03:46:48;61.60;;;35.20;;
35745;SDS011;21870;42.812;74.628;2022-11-11T03:49:14;48.40;;;29.13;;
35745;SDS011;21870;42.812;74.628;2022-11-11T03:51:40;42.05;;;27.35;;
35745;SDS011;21870;42.812;74.628;2022-11-11T03:54:06;40.33;;;24.88;;
35745;SDS011;21870;42.812;74.628;2022-11-11T03:56:32;33.45;;;23.40;;
35745;SDS011;21870;42.812;74.628;2022-11-11T03:58:58;46.55;;;28.55;;
35745;SDS011;21870;42.812;74.628;2022-11-11T04:01:24;58.75;;;35.42;;
35745;SDS011;21870;42.812;74.628;2022-11-11T04:04:08;60.13;;;34.83;;
35745;SDS011;21870;42.812;74.628;2022-11-11T04:06:53;55.00;;;36.78;;
35745;SDS011;21870;42.812;74.628;2022-11-11T04:09:37;73.28;;;45.90;;
35745;SDS011;21870;42.812;74.628;2022-11-11T04:12:22;52.83;;;36.63;;
35745;SDS011;21870;42.812;74.628;2022-11-11T04:14:49;47.88;;;33.95;;
35745;SDS011;21870;42.812;74.628;2022-11-11T04:17:33;36.92;;;27.85;;
35745;SDS011;21870;42.812;74.628;2022-11-11T04:19:59;41.72;;;29.90;;
35745;SDS011;21870;42.812;74.628;2022-11-11T04:22:44;27.20;;;24.15;;
35745;SDS011;21870;42.812;74.628;2022-11-11T04:25:10;32.90;;;25.20;;
35745;SDS011;21870;42.812;74.628;2022-11-11T04:27:57;39.00;;;26.10;;
35745;SDS011;21870;42.812;74.628;2022-11-11T04:30:42;36.70;;;24.33;;
35745;SDS011;21870;42.812;74.628;2022-11-11T04:33:08;36.60;;;26.33;;
35745;SDS011;21870;42.812;74.628;2022-11-11T04:35:34;43.17;;;29.88;;
35745;SDS011;21870;42.812;74.628;2022-11-11T04:38:00;47.63;;;32.70;;
35745;SDS011;21870;42.812;74.628;2022-11-11T04:40:45;50.50;;;35.30;;
35745;SDS011;21870;42.812;74.628;2022-11-11T04:43:35;46.40;;;34.95;;
35745;SDS011;21870;42.812;74.628;2022-11-11T04:46:20;51.78;;;38.42;;
35745;SDS011;21870;42.812;74.628;2022-11-11T04:48:47;46.85;;;34.95;;
35745;SDS011;21870;42.812;74.628;2022-11-11T04:51:13;43.63;;;35.97;;
35745;SDS011;21870;42.812;74.628;2022-11-11T04:53:39;42.92;;;30.88;;
35745;SDS011;21870;42.812;74.628;2022-11-11T04:56:05;38.88;;;28.55;;
35745;SDS011;21870;42.812;74.628;2022-11-11T04:58:51;40.58;;;29.27;;
35745;SDS011;21870;42.812;74.628;2022-11-11T05:01:37;40.17;;;28.08;;
35745;SDS011;21870;42.812;74.628;2022-11-11T05:04:21;37.30;;;29.45;;
35745;SDS011;21870;42.812;74.628;2022-11-11T05:06:47;38.05;;;30.75;;
35745;SDS011;21870;42.812;74.628;2022-11-11T05:09:31;52.67;;;29.80;;
35745;SDS011;21870;42.812;74.628;2022-11-11T05:11:57;50.88;;;31.00;;
35745;SDS011;21870;42.812;74.628;2022-11-11T05:14:23;41.40;;;29.20;;
35745;SDS011;21870;42.812;74.628;2022-11-11T05:17:08;36.90;;;28.20;;
35745;SDS011;21870;42.812;74.628;2022-11-11T05:19:53;38.80;;;26.50;;
35745;SDS011;21870;42.812;74.628;2022-11-11T05:22:38;34.97;;;28.00;;
35745;SDS011;21870;42.812;74.628;2022-11-11T05:25:05;41.45;;;27.38;;
35745;SDS011;21870;42.812;74.628;2022-11-11T05:27:58;36.58;;;27.08;;
35745;SDS011;21870;42.812;74.628;2022-11-11T05:30:24;47.67;;;27.38;;
35745;SDS011;21870;42.812;74.628;2022-11-11T05:32:50;36.95;;;28.00;;
35745;SDS011;21870;42.812;74.628;2022-11-11T05:35:18;39.72;;;28.38;;
35745;SDS011;21870;42.812;74.628;2022-11-11T05:37:44;36.97;;;29.08;;
35745;SDS011;21870;42.812;74.628;2022-11-11T05:40:33;34.90;;;28.27;;
35745;SDS011;21870;42.812;74.628;2022-11-11T05:42:59;37.13;;;27.05;;
35745;SDS011;21870;42.812;74.628;2022-11-11T05:45:25;38.05;;;30.23;;
35745;SDS011;21870;42.812;74.628;2022-11-11T05:47:51;40.53;;;31.90;;
35745;SDS011;21870;42.812;74.628;2022-11-11T05:50:17;44.55;;;31.52;;
35745;SDS011;21870;42.812;74.628;2022-11-11T05:52:47;40.45;;;32.75;;
35745;SDS011;21870;42.812;74.628;2022-11-11T05:55:14;39.88;;;32.75;;
35745;SDS011;21870;42.812;74.628;2022-11-11T05:57:40;44.85;;;34.72;;
35745;SDS011;21870;42.812;74.628;2022-11-11T06:00:07;43.75;;;31.10;;
35745;SDS011;21870;42.812;74.628;2022-11-11T06:02:34;45.30;;;33.03;;
35745;SDS011;21870;42.812;74.628;2022-11-11T06:05:00;41.00;;;34.38;;
35745;SDS011;21870;42.812;74.628;2022-11-11T06:07:26;44.05;;;31.88;;
35745;SDS011;21870;42.812;74.628;2022-11-11T06:09:52;44.80;;;34.22;;
35745;SDS011;21870;42.812;74.628;2022-11-11T06:12:42;43.05;;;31.65;;
35745;SDS011;21870;42.812;74.628;2022-11-11T06:15:26;45.03;;;33.67;;
35745;SDS011;21870;42.812;74.628;2022-11-11T06:17:53;47.13;;;32.10;;
35745;SDS011;21870;42.812;74.628;2022-11-11T06:20:19;54.67;;;33.45;;
35745;SDS011;21870;42.812;74.628;2022-11-11T06:22:45;41.28;;;33.05;;
35745;SDS011;21870;42.812;74.628;2022-11-11T06:25:21;52.13;;;32.15;;
35745;SDS011;21870;42.812;74.628;2022-11-11T06:28:06;44.25;;;33.22;;
35745;SDS011;21870;42.812;74.628;2022-11-11T06:30:32;54.97;;;34.38;;
35745;SDS011;21870;42.812;74.628;2022-11-11T06:32:59;43.17;;;31.05;;
35745;SDS011;21870;42.812;74.628;2022-11-11T06:35:25;49.55;;;32.30;;
35745;SDS011;21870;42.812;74.628;2022-11-11T06:37:51;47.28;;;31.92;;
35745;SDS011;21870;42.812;74.628;2022-11-11T06:40:17;40.53;;;31.05;;
35745;SDS011;21870;42.812;74.628;2022-11-11T06:42:48;39.55;;;28.50;;
35745;SDS011;21870;42.812;74.628;2022-11-11T06:45:14;44.10;;;30.60;;
35745;SDS011;21870;42.812;74.628;2022-11-11T06:47:41;41.03;;;30.23;;
35745;SDS011;21870;42.812;74.628;2022-11-11T06:50:07;43.67;;;28.80;;
35745;SDS011;21870;42.812;74.628;2022-11-11T06:52:34;38.58;;;27.90;;
35745;SDS011;21870;42.812;74.628;2022-11-11T06:55:00;33.60;;;26.45;;
35745;SDS011;21870;42.812;74.628;2022-11-11T06:57:26;40.80;;;27.88;;
35745;SDS011;21870;42.812;74.628;2022-11-11T06:59:52;34.55;;;27.40;;
35745;SDS011;21870;42.812;74.628;2022-11-11T07:02:18;38.33;;;25.80;;
35745;SDS011;21870;42.812;74.628;2022-11-11T07:04:44;43.28;;;29.08;;
35745;SDS011;21870;42.812;74.628;2022-11-11T07:07:10;38.97;;;28.15;;
35745;SDS011;21870;42.812;74.628;2022-11-11T07:09:36;42.55;;;30.42;;
35745;SDS011;21870;42.812;74.628;2022-11-11T07:12:02;46.40;;;28.27;;
35745;SDS011;21870;42.812;74.628;2022-11-11T07:14:28;38.13;;;27.02;;
35745;SDS011;21870;42.812;74.628;2022-11-11T07:16:54;34.05;;;27.65;;
35745;SDS011;21870;42.812;74.628;2022-11-11T07:19:20;38.15;;;28.08;;
35745;SDS011;21870;42.812;74.628;2022-11-11T07:21:46;35.35;;;26.35;;
35745;SDS011;21870;42.812;74.628;2022-11-11T07:24:12;45.15;;;28.83;;
35745;SDS011;21870;42.812;74.628;2022-11-11T07:26:38;41.25;;;29.48;;
35745;SDS011;21870;42.812;74.628;2022-11-11T07:29:04;37.40;;;28.05;;
35745;SDS011;21870;42.812;74.628;2022-11-11T07:31:30;50.97;;;31.50;;
35745;SDS011;21870;42.812;74.628;2022-11-11T07:33:56;44.40;;;30.48;;
35745;SDS011;21870;42.812;74.628;2022-11-11T07:36:22;44.67;;;31.63;;
35745;SDS011;21870;42.812;74.628;2022-11-11T07:38:49;41.50;;;30.35;;
35745;SDS011;21870;42.812;74.628;2022-11-11T07:41:15;42.50;;;31.48;;
35745;SDS011;21870;42.812;74.628;2022-11-11T07:43:41;43.10;;;33.20;;
35745;SDS011;21870;42.812;74.628;2022-11-11T07:46:07;51.28;;;36.65;;
35745;SDS011;21870;42.812;74.628;2022-11-11T07:48:33;61.72;;;42.17;;
35745;SDS011;21870;42.812;74.628;2022-11-11T07:50:59;70.47;;;54.40;;
35745;SDS011;21870;42.812;74.628;2022-11-11T07:53:25;67.38;;;56.22;;
35745;SDS011;21870;42.812;74.628;2022-11-11T07:55:52;85.57;;;59.33;;
35745;SDS011;21870;42.812;74.628;2022-11-11T07:58:19;73.05;;;58.50;;
35745;SDS011;21870;42.812;74.628;2022-11-11T08:00:46;78.00;;;61.28;;
35745;SDS011;21870;42.812;74.628;2022-11-11T08:03:12;84.90;;;62.50;;
35745;SDS011;21870;42.812;74.628;2022-11-11T08:05:38;92.03;;;68.95;;
35745;SDS011;21870;42.812;74.628;2022-11-11T08:08:08;74.50;;;58.85;;
35745;SDS011;21870;42.812;74.628;2022-11-11T08:10:35;83.40;;;62.05;;
35745;SDS011;21870;42.812;74.628;2022-11-11T08:13:02;89.15;;;68.97;;
35745;SDS011;21870;42.812;74.628;2022-11-11T08:15:47;99.60;;;75.57;;
35745;SDS011;21870;42.812;74.628;2022-11-11T08:18:14;124.45;;;88.72;;
35745;SDS011;21870;42.812;74.628;2022-11-11T08:20:40;113.85;;;90.53;;
35745;SDS011;21870;42.812;74.628;2022-11-11T08:23:07;108.70;;;86.38;;
35745;SDS011;21870;42.812;74.628;2022-11-11T08:25:36;112.72;;;91.88;;
35745;SDS011;21870;42.812;74.628;2022-11-11T08:28:03;137.13;;;101.72;;
35745;SDS011;21870;42.812;74.628;2022-11-11T08:30:30;128.55;;;96.45;;
35745;SDS011;21870;42.812;74.628;2022-11-11T08:32:57;110.18;;;87.47;;
35745;SDS011;21870;42.812;74.628;2022-11-11T08:35:27;109.00;;;83.18;;
35745;SDS011;21870;42.812;74.628;2022-11-11T08:37:54;114.90;;;77.30;;
35745;SDS011;21870;42.812;74.628;2022-11-11T08:40:21;90.22;;;71.90;;
35745;SDS011;21870;42.812;74.628;2022-11-11T08:42:47;55.17;;;39.80;;
35745;SDS011;21870;42.812;74.628;2022-11-11T08:45:13;48.67;;;37.33;;
35745;SDS011;21870;42.812;74.628;2022-11-11T08:47:39;64.65;;;45.03;;
35745;SDS011;21870;42.812;74.628;2022-11-11T08:50:08;51.38;;;44.53;;
35745;SDS011;21870;42.812;74.628;2022-11-11T08:52:37;66.30;;;49.10;;
35745;SDS011;21870;42.812;74.628;2022-11-11T08:55:03;65.10;;;49.05;;
35745;SDS011;21870;42.812;74.628;2022-11-11T08:57:29;49.70;;;40.40;;
35745;SDS011;21870;42.812;74.628;2022-11-11T08:59:56;58.72;;;44.65;;
35745;SDS011;21870;42.812;74.628;2022-11-11T09:02:22;67.50;;;51.97;;
35745;SDS011;21870;42.812;74.628;2022-11-11T09:04:48;79.53;;;57.42;;
35745;SDS011;21870;42.812;74.628;2022-11-11T09:07:14;67.22;;;52.70;;
35745;SDS011;21870;42.812;74.628;2022-11-11T09:09:40;55.20;;;39.83;;
35745;SDS011;21870;42.812;74.628;2022-11-11T09:12:06;58.50;;;42.63;;
35745;SDS011;21870;42.812;74.628;2022-11-11T09:14:32;55.58;;;42.05;;
35745;SDS011;21870;42.812;74.628;2022-11-11T09:16:58;47.88;;;38.90;;
35745;SDS011;21870;42.812;74.628;2022-11-11T09:19:24;44.90;;;33.42;;
35745;SDS011;21870;42.812;74.628;2022-11-11T09:21:50;47.17;;;33.58;;
35745;SDS011;21870;42.812;74.628;2022-11-11T09:24:19;40.75;;;34.78;;
35745;SDS011;21870;42.812;74.628;2022-11-11T09:26:46;49.13;;;34.65;;
35745;SDS011;21870;42.812;74.628;2022-11-11T09:29:13;42.00;;;33.38;;
35745;SDS011;21870;42.812;74.628;2022-11-11T09:31:40;39.60;;;35.17;;
35745;SDS011;21870;42.812;74.628;2022-11-11T09:34:06;46.53;;;38.10;;
35745;SDS011;21870;42.812;74.628;2022-11-11T09:36:32;46.75;;;38.95;;
35745;SDS011;21870;42.812;74.628;2022-11-11T09:38:58;50.60;;;40.38;;
35745;SDS011;21870;42.812;74.628;2022-11-11T09:44:37;53.65;;;44.00;;
35745;SDS011;21870;42.812;74.628;2022-11-11T09:47:13;59.88;;;43.70;;
35745;SDS011;21870;42.812;74.628;2022-11-11T10:00:35;70.43;;;49.00;;
35745;SDS011;21870;42.812;74.628;2022-11-11T10:05:41;76.32;;;46.53;;
35745;SDS011;21870;42.812;74.628;2022-11-11T10:08:27;58.38;;;46.15;;
35745;SDS011;21870;42.812;74.628;2022-11-11T10:10:59;68.25;;;45.35;;
35745;SDS011;21870;42.812;74.628;2022-11-11T10:21:53;49.47;;;33.35;;
35745;SDS011;21870;42.812;74.628;2022-11-11T10:24:34;56.25;;;34.45;;
35745;SDS011;21870;42.812;74.628;2022-11-11T10:27:11;58.92;;;32.42;;
35745;SDS011;21870;42.812;74.628;2022-11-11T10:29:42;55.55;;;32.00;;
35745;SDS011;21870;42.812;74.628;2022-11-11T10:32:23;44.22;;;34.88;;
35745;SDS011;21870;42.812;74.628;2022-11-11T10:34:58;55.35;;;31.83;;
35745;SDS011;21870;42.812;74.628;2022-11-11T10:37:42;43.30;;;32.65;;
35745;SDS011;21870;42.812;74.628;2022-11-11T10:40:20;50.70;;;31.48;;
35745;SDS011;21870;42.812;74.628;2022-11-11T10:42:51;38.63;;;32.17;;
35745;SDS011;21870;42.812;74.628;2022-11-11T10:47:55;40.17;;;29.35;;
35745;SDS011;21870;42.812;74.628;2022-11-11T10:50:31;54.40;;;28.80;;
35745;SDS011;21870;42.812;74.628;2022-11-11T10:52:59;32.72;;;26.58;;
35745;SDS011;21870;42.812;74.628;2022-11-11T10:58:42;49.33;;;29.70;;
35745;SDS011;21870;42.812;74.628;2022-11-11T11:01:21;51.00;;;30.02;;
35745;SDS011;21870;42.812;74.628;2022-11-11T11:04:00;35.58;;;30.02;;
35745;SDS011;21870;42.812;74.628;2022-11-11T11:06:36;42.60;;;30.17;;
35745;SDS011;21870;42.812;74.628;2022-11-11T11:11:44;43.83;;;31.05;;
35745;SDS011;21870;42.812;74.628;2022-11-11T11:14:38;42.10;;;32.22;;
35745;SDS011;21870;42.812;74.628;2022-11-11T11:17:13;48.65;;;31.85;;
35745;SDS011;21870;42.812;74.628;2022-11-11T11:20:10;44.03;;;30.50;;
35745;SDS011;21870;42.812;74.628;2022-11-11T11:22:58;66.22;;;31.85;;
35745;SDS011;21870;42.812;74.628;2022-11-11T11:25:26;49.97;;;32.03;;
35745;SDS011;21870;42.812;74.628;2022-11-11T11:28:08;44.40;;;31.35;;
35745;SDS011;21870;42.812;74.628;2022-11-11T11:30:35;64.53;;;32.80;;
35745;SDS011;21870;42.812;74.628;2022-11-11T11:33:03;47.92;;;31.88;;
35745;SDS011;21870;42.812;74.628;2022-11-11T11:35:37;59.78;;;32.70;;
35745;SDS011;21870;42.812;74.628;2022-11-11T11:38:05;66.60;;;32.78;;
35745;SDS011;21870;42.812;74.628;2022-11-11T11:40:46;114.72;;;36.90;;
35745;SDS011;21870;42.812;74.628;2022-11-11T11:43:24;97.53;;;37.85;;
35745;SDS011;21870;42.812;74.628;2022-11-11T11:45:57;60.85;;;35.88;;
35745;SDS011;21870;42.812;74.628;2022-11-11T11:50:51;77.25;;;37.47;;
35745;SDS011;21870;42.812;74.628;2022-11-11T11:58:56;52.15;;;33.90;;
35745;SDS011;21870;42.812;74.628;2022-11-11T12:01:33;65.53;;;32.70;;
35745;SDS011;21870;42.812;74.628;2022-11-11T12:12:39;65.45;;;35.95;;
35745;SDS011;21870;42.812;74.628;2022-11-11T12:15:12;54.78;;;32.90;;
35745;SDS011;21870;42.812;74.628;2022-11-11T12:18:17;52.92;;;37.08;;
35745;SDS011;21870;42.812;74.628;2022-11-11T12:51:45;43.67;;;33.92;;
35745;SDS011;21870;42.812;74.628;2022-11-11T12:54:38;38.80;;;30.83;;
35745;SDS011;21870;42.812;74.628;2022-11-11T12:59:57;42.65;;;32.53;;
35745;SDS011;21870;42.812;74.628;2022-11-11T13:05:29;44.65;;;31.35;;
35745;SDS011;21870;42.812;74.628;2022-11-11T13:08:19;37.33;;;30.02;;
35745;SDS011;21870;42.812;74.628;2022-11-11T13:16:43;40.55;;;29.70;;
35745;SDS011;21870;42.812;74.628;2022-11-11T13:19:23;40.88;;;29.00;;
35745;SDS011;21870;42.812;74.628;2022-11-11T13:22:25;37.85;;;30.02;;
35745;SDS011;21870;42.812;74.628;2022-11-11T13:24:56;42.38;;;30.30;;
35745;SDS011;21870;42.812;74.628;2022-11-11T13:30:25;42.90;;;32.47;;
35745;SDS011;21870;42.812;74.628;2022-11-11T13:35:43;53.20;;;35.00;;
35745;SDS011;21870;42.812;74.628;2022-11-11T13:38:21;44.45;;;33.90;;
35745;SDS011;21870;42.812;74.628;2022-11-11T13:40:49;47.13;;;35.80;;
35745;SDS011;21870;42.812;74.628;2022-11-11T13:43:19;49.90;;;36.35;;
35745;SDS011;21870;42.812;74.628;2022-11-11T13:45:53;48.15;;;37.55;;
35745;SDS011;21870;42.812;74.628;2022-11-11T13:54:18;49.55;;;38.85;;
35745;SDS011;21870;42.812;74.628;2022-11-11T13:56:45;48.75;;;39.97;;
35745;SDS011;21870;42.812;74.628;2022-11-11T13:59:23;47.33;;;37.97;;
35745;SDS011;21870;42.812;74.628;2022-11-11T14:02:24;43.47;;;33.10;;
35745;SDS011;21870;42.812;74.628;2022-11-11T14:15:43;32.60;;;27.08;;
35745;SDS011;21870;42.812;74.628;2022-11-11T14:20:44;31.80;;;25.83;;
35745;SDS011;21870;42.812;74.628;2022-11-11T14:25:49;34.67;;;26.83;;
35745;SDS011;21870;42.812;74.628;2022-11-11T14:30:52;31.05;;;22.60;;
35745;SDS011;21870;42.812;74.628;2022-11-11T14:33:22;29.13;;;22.55;;
35745;SDS011;21870;42.812;74.628;2022-11-11T14:36:15;26.30;;;22.75;;
35745;SDS011;21870;42.812;74.628;2022-11-11T14:41:42;29.55;;;21.42;;
35745;SDS011;21870;42.812;74.628;2022-11-11T14:55:09;51.97;;;35.17;;
35745;SDS011;21870;42.812;74.628;2022-11-11T14:57:50;39.00;;;26.48;;
35745;SDS011;21870;42.812;74.628;2022-11-11T15:00:25;33.00;;;23.98;;
35745;SDS011;21870;42.812;74.628;2022-11-11T15:03:00;27.30;;;22.45;;
35745;SDS011;21870;42.812;74.628;2022-11-11T15:08:16;28.20;;;20.20;;
35745;SDS011;21870;42.812;74.628;2022-11-11T15:11:03;30.35;;;21.80;;
35745;SDS011;21870;42.812;74.628;2022-11-11T15:16:29;62.97;;;38.83;;
35745;SDS011;21870;42.812;74.628;2022-11-11T15:27:53;40.70;;;30.90;;
35745;SDS011;21870;42.812;74.628;2022-11-11T15:30:56;39.33;;;24.67;;
35745;SDS011;21870;42.812;74.628;2022-11-11T15:39:25;45.17;;;32.90;;
35745;SDS011;21870;42.812;74.628;2022-11-11T15:42:01;44.83;;;32.75;;
35745;SDS011;21870;42.812;74.628;2022-11-11T15:44:30;49.05;;;34.28;;
35745;SDS011;21870;42.812;74.628;2022-11-11T15:46:59;42.95;;;30.92;;
35745;SDS011;21870;42.812;74.628;2022-11-11T15:49:42;38.17;;;27.38;;
35745;SDS011;21870;42.812;74.628;2022-11-11T15:54:56;26.95;;;21.50;;
35745;SDS011;21870;42.812;74.628;2022-11-11T15:57:30;31.80;;;21.73;;
35745;SDS011;21870;42.812;74.628;2022-11-11T15:59:58;27.75;;;20.92;;
35745;SDS011;21870;42.812;74.628;2022-11-11T16:02:26;33.28;;;21.60;;
35745;SDS011;21870;42.812;74.628;2022-11-11T16:04:58;29.40;;;21.20;;
35745;SDS011;21870;42.812;74.628;2022-11-11T16:07:30;26.58;;;20.17;;
35745;SDS011;21870;42.812;74.628;2022-11-11T16:10:43;25.55;;;20.00;;
35745;SDS011;21870;42.812;74.628;2022-11-11T16:13:06;27.40;;;19.17;;
35745;SDS011;21870;42.812;74.628;2022-11-11T16:15:44;44.05;;;34.08;;
35745;SDS011;21870;42.812;74.628;2022-11-11T16:18:23;61.55;;;46.33;;
35745;SDS011;21870;42.812;74.628;2022-11-11T16:20:58;44.78;;;35.30;;
35745;SDS011;21870;42.812;74.628;2022-11-11T16:23:30;65.07;;;55.85;;
35745;SDS011;21870;42.812;74.628;2022-11-11T16:25:57;35.42;;;29.02;;
35745;SDS011;21870;42.812;74.628;2022-11-11T16:28:26;72.55;;;55.53;;
35745;SDS011;21870;42.812;74.628;2022-11-11T16:30:56;91.13;;;75.53;;
35745;SDS011;21870;42.812;74.628;2022-11-11T16:35:51;35.28;;;30.27;;
35745;SDS011;21870;42.812;74.628;2022-11-11T16:38:30;42.75;;;33.03;;
35745;SDS011;21870;42.812;74.628;2022-11-11T16:40:57;30.75;;;21.88;;
35745;SDS011;21870;42.812;74.628;2022-11-11T16:43:24;32.90;;;26.35;;
35745;SDS011;21870;42.812;74.628;2022-11-11T16:46:07;25.67;;;19.40;;
35745;SDS011;21870;42.812;74.628;2022-11-11T16:48:39;25.83;;;19.67;;
35745;SDS011;21870;42.812;74.628;2022-11-11T16:51:21;26.58;;;18.70;;
35745;SDS011;21870;42.812;74.628;2022-11-11T16:54:08;25.52;;;19.67;;
35745;SDS011;21870;42.812;74.628;2022-11-11T16:56:43;26.23;;;19.20;;
35745;SDS011;21870;42.812;74.628;2022-11-11T16:59:33;26.20;;;17.13;;
35745;SDS011;21870;42.812;74.628;2022-11-11T17:02:18;23.13;;;17.05;;
35745;SDS011;21870;42.812;74.628;2022-11-11T17:04:46;21.58;;;17.58;;
35745;SDS011;21870;42.812;74.628;2022-11-11T17:07:36;23.25;;;16.85;;
35745;SDS011;21870;42.812;74.628;2022-11-11T17:12:33;23.20;;;18.10;;
35745;SDS011;21870;42.812;74.628;2022-11-11T17:15:00;28.15;;;20.98;;
35745;SDS011;21870;42.812;74.628;2022-11-11T17:17:28;27.52;;;18.98;;
35745;SDS011;21870;42.812;74.628;2022-11-11T17:19:55;26.55;;;20.27;;
35745;SDS011;21870;42.812;74.628;2022-11-11T17:22:22;38.72;;;30.00;;
35745;SDS011;21870;42.812;74.628;2022-11-11T17:24:48;27.60;;;20.50;;
35745;SDS011;21870;42.812;74.628;2022-11-11T17:27:14;25.25;;;21.15;;